sensor_id;sensor_type;location;lat;lon;timestamp;pressure;altitude;pressure_sealevel;temperature;humidity
69402;BME280;56589;51.992;5.924;2022-07-29T00:00:58;101212.94;;;17.74;48.65
69402;BME280;56589;51.992;5.924;2022-07-29T00:03:24;101209.47;;;17.73;48.96
69402;BME280;56589;51.992;5.924;2022-07-29T00:05:50;101207.88;;;17.71;48.97
69402;BME280;56589;51.992;5.924;2022-07-29T00:08:16;101201.03;;;17.68;48.93
69402;BME280;56589;51.992;5.924;2022-07-29T00:10:42;101196.94;;;17.64;48.82
69402;BME280;56589;51.992;5.924;2022-07-29T00:13:08;101195.94;;;17.65;49.33
69402;BME280;56589;51.992;5.924;2022-07-29T00:15:37;101185.34;;;17.65;49.27
69402;BME280;56589;51.992;5.924;2022-07-29T00:18:03;101182.97;;;17.62;49.35
69402;BME280;56589;51.992;5.924;2022-07-29T00:20:29;101192.75;;;17.62;49.15
69402;BME280;56589;51.992;5.924;2022-07-29T00:22:55;101182.97;;;17.62;49.19
69402;BME280;56589;51.992;5.924;2022-07-29T00:25:20;101194.66;;;17.60;49.55
69402;BME280;56589;51.992;5.924;2022-07-29T00:27:46;101182.38;;;17.59;49.72
69402;BME280;56589;51.992;5.924;2022-07-29T00:30:12;101177.22;;;17.57;49.59
69402;BME280;56589;51.992;5.924;2022-07-29T00:32:41;101178.31;;;17.55;49.59
69402;BME280;56589;51.992;5.924;2022-07-29T00:35:08;101176.75;;;17.52;49.74
69402;BME280;56589;51.992;5.924;2022-07-29T00:37:34;101176.91;;;17.50;49.97
69402;BME280;56589;51.992;5.924;2022-07-29T00:40:00;101168.94;;;17.50;49.84
69402;BME280;56589;51.992;5.924;2022-07-29T00:42:25;101178.88;;;17.48;49.84
69402;BME280;56589;51.992;5.924;2022-07-29T00:44:51;101163.47;;;17.42;49.90
69402;BME280;56589;51.992;5.924;2022-07-29T00:47:17;101154.78;;;17.40;50.08
69402;BME280;56589;51.992;5.924;2022-07-29T00:49:45;101161.19;;;17.38;50.02
69402;BME280;56589;51.992;5.924;2022-07-29T00:52:12;101162.03;;;17.38;50.30
69402;BME280;56589;51.992;5.924;2022-07-29T00:54:38;101154.78;;;17.40;50.37
69402;BME280;56589;51.992;5.924;2022-07-29T00:57:06;101162.03;;;17.38;50.13
69402;BME280;56589;51.992;5.924;2022-07-29T00:59:33;101154.91;;;17.39;50.36
69402;BME280;56589;51.992;5.924;2022-07-29T01:01:59;101152.53;;;17.36;50.30
69402;BME280;56589;51.992;5.924;2022-07-29T01:04:25;101149.44;;;17.31;50.48
69402;BME280;56589;51.992;5.924;2022-07-29T01:06:54;101147.19;;;17.26;50.78
69402;BME280;56589;51.992;5.924;2022-07-29T01:09:21;101158.06;;;17.23;50.58
69402;BME280;56589;51.992;5.924;2022-07-29T01:11:47;101163.38;;;17.23;51.11
69402;BME280;56589;51.992;5.924;2022-07-29T01:14:13;101158.19;;;17.21;50.92
69402;BME280;56589;51.992;5.924;2022-07-29T01:16:45;101157.22;;;17.22;50.91
69402;BME280;56589;51.992;5.924;2022-07-29T01:19:44;101146.59;;;17.22;51.37
69402;BME280;56589;51.992;5.924;2022-07-29T01:22:26;101154.44;;;17.24;50.95
69402;BME280;56589;51.992;5.924;2022-07-29T01:25:10;101148.28;;;17.23;50.90
69402;BME280;56589;51.992;5.924;2022-07-29T01:27:54;101152.19;;;17.19;51.24
69402;BME280;56589;51.992;5.924;2022-07-29T01:30:38;101152.31;;;17.18;51.46
69402;BME280;56589;51.992;5.924;2022-07-29T01:33:10;101152.56;;;17.15;51.50
69402;BME280;56589;51.992;5.924;2022-07-29T01:35:41;101137.91;;;17.11;51.50
69402;BME280;56589;51.992;5.924;2022-07-29T01:38:13;101133.44;;;17.11;51.28
69402;BME280;56589;51.992;5.924;2022-07-29T01:40:48;101144.88;;;17.12;51.58
69402;BME280;56589;51.992;5.924;2022-07-29T01:43:21;101145.72;;;17.12;51.27
69402;BME280;56589;51.992;5.924;2022-07-29T01:45:58;101146.69;;;17.11;51.73
69402;BME280;56589;51.992;5.924;2022-07-29T01:48:34;101151.03;;;17.12;51.77
69402;BME280;56589;51.992;5.924;2022-07-29T01:51:11;101147.41;;;17.13;51.51
69402;BME280;56589;51.992;5.924;2022-07-29T01:53:46;101157.88;;;17.15;51.51
69402;BME280;56589;51.992;5.924;2022-07-29T01:56:16;101152.44;;;17.16;51.19
69402;BME280;56589;51.992;5.924;2022-07-29T01:58:45;101157.63;;;17.18;51.18
69402;BME280;56589;51.992;5.924;2022-07-29T02:01:16;101166.56;;;17.17;51.68
69402;BME280;56589;51.992;5.924;2022-07-29T02:03:45;101160.28;;;17.18;51.44
69402;BME280;56589;51.992;5.924;2022-07-29T02:06:19;101159.31;;;17.19;51.42
69402;BME280;56589;51.992;5.924;2022-07-29T02:08:48;101157.47;;;17.19;51.35
69402;BME280;56589;51.992;5.924;2022-07-29T02:11:16;101160.84;;;17.21;51.33
69402;BME280;56589;51.992;5.924;2022-07-29T02:13:43;101164.31;;;17.22;51.18
69402;BME280;56589;51.992;5.924;2022-07-29T02:16:12;101184.47;;;17.24;51.53
69402;BME280;56589;51.992;5.924;2022-07-29T02:18:41;101184.94;;;17.30;51.21
69402;BME280;56589;51.992;5.924;2022-07-29T02:21:11;101180.19;;;17.33;51.51
69402;BME280;56589;51.992;5.924;2022-07-29T02:23:38;101187.88;;;17.36;52.90
69402;BME280;56589;51.992;5.924;2022-07-29T02:26:04;101183.94;;;17.31;53.29
69402;BME280;56589;51.992;5.924;2022-07-29T02:28:33;101193.66;;;17.20;53.71
69402;BME280;56589;51.992;5.924;2022-07-29T02:31:00;101190.81;;;17.12;54.13
69402;BME280;56589;51.992;5.924;2022-07-29T02:33:29;101193.03;;;17.07;54.34
69402;BME280;56589;51.992;5.924;2022-07-29T02:38:35;101173.31;;;17.00;54.64
69402;BME280;56589;51.992;5.924;2022-07-29T02:41:04;101173.44;;;16.98;54.94
69402;BME280;56589;51.992;5.924;2022-07-29T02:43:34;101179.69;;;16.97;55.15
69402;BME280;56589;51.992;5.924;2022-07-29T02:46:03;101177.03;;;16.97;55.36
69402;BME280;56589;51.992;5.924;2022-07-29T02:48:37;101165.72;;;16.95;55.08
69402;BME280;56589;51.992;5.924;2022-07-29T02:51:06;101172.16;;;16.93;55.69
69402;BME280;56589;51.992;5.924;2022-07-29T02:53:42;101171.94;;;16.85;54.85
69402;BME280;56589;51.992;5.924;2022-07-29T02:56:16;101167.16;;;16.79;55.13
69402;BME280;56589;51.992;5.924;2022-07-29T02:58:54;101168.38;;;16.75;55.02
69402;BME280;56589;51.992;5.924;2022-07-29T03:01:25;101162.47;;;16.71;55.02
69402;BME280;56589;51.992;5.924;2022-07-29T03:04:00;101158.50;;;16.65;55.25
69402;BME280;56589;51.992;5.924;2022-07-29T03:06:30;101154.31;;;16.63;54.92
69402;BME280;56589;51.992;5.924;2022-07-29T03:09:01;101154.41;;;16.61;55.29
69402;BME280;56589;51.992;5.924;2022-07-29T03:11:28;101156.84;;;16.64;55.34
69402;BME280;56589;51.992;5.924;2022-07-29T03:13:54;101148.28;;;16.61;55.91
69402;BME280;56589;51.992;5.924;2022-07-29T03:16:21;101135.94;;;16.50;57.14
69402;BME280;56589;51.992;5.924;2022-07-29T03:18:48;101130.59;;;16.29;58.48
69402;BME280;56589;51.992;5.924;2022-07-29T03:21:14;101130.31;;;16.00;60.14
69402;BME280;56589;51.992;5.924;2022-07-29T03:23:43;101122.22;;;15.70;61.63
69402;BME280;56589;51.992;5.924;2022-07-29T03:26:13;101121.97;;;15.50;62.32
69402;BME280;56589;51.992;5.924;2022-07-29T03:28:39;101119.59;;;15.36;62.18
69402;BME280;56589;51.992;5.924;2022-07-29T03:31:04;101105.03;;;15.19;62.97
69402;BME280;56589;51.992;5.924;2022-07-29T03:33:30;101087.47;;;15.07;63.59
69402;BME280;56589;51.992;5.924;2022-07-29T03:35:56;101086.75;;;14.94;64.26
69402;BME280;56589;51.992;5.924;2022-07-29T03:38:25;101089.16;;;14.85;64.38
69402;BME280;56589;51.992;5.924;2022-07-29T03:40:57;101081.91;;;14.76;64.51
69402;BME280;56589;51.992;5.924;2022-07-29T03:43:30;101080.97;;;14.66;64.91
69402;BME280;56589;51.992;5.924;2022-07-29T03:46:00;101088.28;;;14.63;65.49
69402;BME280;56589;51.992;5.924;2022-07-29T03:48:30;101091.13;;;14.59;65.30
69402;BME280;56589;51.992;5.924;2022-07-29T03:51:00;101085.94;;;14.58;66.19
69402;BME280;56589;51.992;5.924;2022-07-29T03:53:26;101081.75;;;14.55;65.92
69402;BME280;56589;51.992;5.924;2022-07-29T03:55:54;101089.66;;;14.55;66.36
69402;BME280;56589;51.992;5.924;2022-07-29T03:58:26;101090.75;;;14.53;66.72
69402;BME280;56589;51.992;5.924;2022-07-29T04:00:56;101089.66;;;14.55;67.02
69402;BME280;56589;51.992;5.924;2022-07-29T04:03:23;101085.09;;;14.57;67.05
69402;BME280;56589;51.992;5.924;2022-07-29T04:05:58;101080.66;;;14.58;66.52
69402;BME280;56589;51.992;5.924;2022-07-29T04:08:26;101083.41;;;14.56;66.49
69402;BME280;56589;51.992;5.924;2022-07-29T04:10:52;101078.25;;;14.55;67.03
69402;BME280;56589;51.992;5.924;2022-07-29T04:13:18;101079.31;;;14.52;66.55
69402;BME280;56589;51.992;5.924;2022-07-29T04:15:47;101068.38;;;14.46;66.72
69402;BME280;56589;51.992;5.924;2022-07-29T04:18:13;101070.31;;;14.44;67.09
69402;BME280;56589;51.992;5.924;2022-07-29T04:20:40;101080.25;;;14.40;66.78
69402;BME280;56589;51.992;5.924;2022-07-29T04:23:06;101092.75;;;14.38;66.96
69402;BME280;56589;51.992;5.924;2022-07-29T04:25:32;101090.34;;;14.35;67.10
69402;BME280;56589;51.992;5.924;2022-07-29T04:27:57;101101.63;;;14.37;67.31
69402;BME280;56589;51.992;5.924;2022-07-29T04:30:23;101111.22;;;14.38;68.05
69402;BME280;56589;51.992;5.924;2022-07-29T04:32:52;101120.75;;;14.41;67.87
69402;BME280;56589;51.992;5.924;2022-07-29T04:35:18;101131.06;;;14.44;68.06
69402;BME280;56589;51.992;5.924;2022-07-29T04:37:46;101131.69;;;14.47;68.15
69402;BME280;56589;51.992;5.924;2022-07-29T04:40:12;101121.13;;;14.47;68.05
69402;BME280;56589;51.992;5.924;2022-07-29T04:42:38;101122.56;;;14.51;67.42
69402;BME280;56589;51.992;5.924;2022-07-29T04:45:05;101113.91;;;14.49;67.86
69402;BME280;56589;51.992;5.924;2022-07-29T04:47:32;101106.19;;;14.46;67.81
69402;BME280;56589;51.992;5.924;2022-07-29T04:50:00;101099.38;;;14.44;67.97
69402;BME280;56589;51.992;5.924;2022-07-29T04:52:26;101098.75;;;14.40;67.39
69402;BME280;56589;51.992;5.924;2022-07-29T04:54:55;101095.50;;;14.37;67.66
69402;BME280;56589;51.992;5.924;2022-07-29T04:57:21;101102.72;;;14.35;67.60
69402;BME280;56589;51.992;5.924;2022-07-29T04:59:46;101094.03;;;14.32;67.94
69402;BME280;56589;51.992;5.924;2022-07-29T05:02:12;101096.81;;;14.31;68.03
69402;BME280;56589;51.992;5.924;2022-07-29T05:04:38;101109.88;;;14.32;67.65
69402;BME280;56589;51.992;5.924;2022-07-29T05:07:07;101120.44;;;14.32;67.54
69402;BME280;56589;51.992;5.924;2022-07-29T05:09:33;101113.50;;;14.31;68.00
69402;BME280;56589;51.992;5.924;2022-07-29T05:11:58;101114.31;;;14.32;67.67
69402;BME280;56589;51.992;5.924;2022-07-29T05:14:24;101107.38;;;14.31;67.37
69402;BME280;56589;51.992;5.924;2022-07-29T05:16:50;101113.59;;;14.30;67.53
69402;BME280;56589;51.992;5.924;2022-07-29T05:19:16;101114.31;;;14.32;67.63
69402;BME280;56589;51.992;5.924;2022-07-29T05:21:42;101110.00;;;14.31;67.80
69402;BME280;56589;51.992;5.924;2022-07-29T05:24:10;101124.78;;;14.33;67.71
69402;BME280;56589;51.992;5.924;2022-07-29T05:26:36;101137.75;;;14.37;67.90
69402;BME280;56589;51.992;5.924;2022-07-29T05:29:02;101135.84;;;14.39;67.58
69402;BME280;56589;51.992;5.924;2022-07-29T05:31:28;101147.88;;;14.43;67.49
69402;BME280;56589;51.992;5.924;2022-07-29T05:33:54;101165.19;;;14.47;67.74
69402;BME280;56589;51.992;5.924;2022-07-29T05:36:20;101165.66;;;14.52;67.64
69402;BME280;56589;51.992;5.924;2022-07-29T05:38:45;101159.47;;;14.53;67.15
69402;BME280;56589;51.992;5.924;2022-07-29T05:41:14;101158.72;;;14.51;67.18
69402;BME280;56589;51.992;5.924;2022-07-29T05:43:39;101157.88;;;14.50;67.85
69402;BME280;56589;51.992;5.924;2022-07-29T05:46:05;101163.66;;;14.55;67.75
69402;BME280;56589;51.992;5.924;2022-07-29T05:48:31;101159.94;;;14.58;67.30
69402;BME280;56589;51.992;5.924;2022-07-29T05:50:57;101160.69;;;14.60;67.27
69402;BME280;56589;51.992;5.924;2022-07-29T05:53:23;101157.91;;;14.62;67.39
69402;BME280;56589;51.992;5.924;2022-07-29T05:55:50;101156.16;;;14.62;67.41
69402;BME280;56589;51.992;5.924;2022-07-29T05:58:19;101162.91;;;14.66;67.57
69402;BME280;56589;51.992;5.924;2022-07-29T06:00:47;101161.81;;;14.69;67.70
69402;BME280;56589;51.992;5.924;2022-07-29T06:03:13;101164.25;;;14.72;67.67
69402;BME280;56589;51.992;5.924;2022-07-29T06:05:39;101164.72;;;14.77;67.66
69402;BME280;56589;51.992;5.924;2022-07-29T06:08:05;101159.91;;;14.82;67.78
69402;BME280;56589;51.992;5.924;2022-07-29T06:10:31;101151.66;;;14.87;67.85
69402;BME280;56589;51.992;5.924;2022-07-29T06:12:57;101150.34;;;14.92;67.41
69402;BME280;56589;51.992;5.924;2022-07-29T06:15:25;101153.47;;;14.97;67.55
69402;BME280;56589;51.992;5.924;2022-07-29T06:17:51;101157.56;;;15.01;66.98
69402;BME280;56589;51.992;5.924;2022-07-29T06:20:17;101155.41;;;15.06;67.33
69402;BME280;56589;51.992;5.924;2022-07-29T06:22:43;101154.69;;;15.16;67.50
69402;BME280;56589;51.992;5.924;2022-07-29T06:25:09;101149.78;;;15.22;66.83
69402;BME280;56589;51.992;5.924;2022-07-29T06:27:35;101153.00;;;15.26;66.45
69402;BME280;56589;51.992;5.924;2022-07-29T06:30:01;101152.53;;;15.32;66.63
69402;BME280;56589;51.992;5.924;2022-07-29T06:32:29;101152.19;;;15.36;66.60
69402;BME280;56589;51.992;5.924;2022-07-29T06:34:55;101161.44;;;15.42;66.14
69402;BME280;56589;51.992;5.924;2022-07-29T06:37:21;101152.53;;;15.43;65.99
69402;BME280;56589;51.992;5.924;2022-07-29T06:39:46;101154.00;;;15.47;66.10
69402;BME280;56589;51.992;5.924;2022-07-29T06:42:12;101156.16;;;15.53;65.99
69402;BME280;56589;51.992;5.924;2022-07-29T06:44:38;101146.03;;;15.58;66.33
69402;BME280;56589;51.992;5.924;2022-07-29T06:47:04;101146.28;;;15.66;66.13
69402;BME280;56589;51.992;5.924;2022-07-29T06:49:32;101149.91;;;15.77;66.19
69402;BME280;56589;51.992;5.924;2022-07-29T06:51:58;101145.53;;;15.87;66.22
69402;BME280;56589;51.992;5.924;2022-07-29T06:54:24;101152.50;;;15.99;66.16
69402;BME280;56589;51.992;5.924;2022-07-29T06:56:49;101146.94;;;16.13;65.91
69402;BME280;56589;51.992;5.924;2022-07-29T06:59:15;101147.59;;;16.27;65.76
69402;BME280;56589;51.992;5.924;2022-07-29T07:01:42;101150.91;;;16.40;65.54
69402;BME280;56589;51.992;5.924;2022-07-29T07:04:10;101154.50;;;16.50;64.87
69402;BME280;56589;51.992;5.924;2022-07-29T07:06:39;101158.19;;;16.59;64.52
69402;BME280;56589;51.992;5.924;2022-07-29T07:09:05;101160.09;;;16.68;64.89
69402;BME280;56589;51.992;5.924;2022-07-29T07:11:31;101162.13;;;16.76;64.24
69402;BME280;56589;51.992;5.924;2022-07-29T07:13:57;101158.94;;;16.82;64.00
69402;BME280;56589;51.992;5.924;2022-07-29T07:16:23;101155.03;;;16.86;63.91
69402;BME280;56589;51.992;5.924;2022-07-29T07:18:49;101150.94;;;16.93;63.76
69402;BME280;56589;51.992;5.924;2022-07-29T07:21:15;101152.22;;;16.98;63.94
69402;BME280;56589;51.992;5.924;2022-07-29T07:23:43;101153.38;;;17.06;63.18
69402;BME280;56589;51.992;5.924;2022-07-29T07:26:09;101158.41;;;17.09;63.43
69402;BME280;56589;51.992;5.924;2022-07-29T07:28:35;101160.38;;;17.16;63.83
69402;BME280;56589;51.992;5.924;2022-07-29T07:31:01;101157.47;;;17.19;63.26
69402;BME280;56589;51.992;5.924;2022-07-29T07:33:26;101156.50;;;17.20;63.43
69402;BME280;56589;51.992;5.924;2022-07-29T07:35:52;101162.25;;;17.25;62.68
69402;BME280;56589;51.992;5.924;2022-07-29T07:38:18;101154.16;;;17.27;62.53
69402;BME280;56589;51.992;5.924;2022-07-29T07:40:46;101156.69;;;17.29;62.34
69402;BME280;56589;51.992;5.924;2022-07-29T07:43:12;101160.06;;;17.31;62.74
69402;BME280;56589;51.992;5.924;2022-07-29T07:45:38;101150.72;;;17.36;62.97
69402;BME280;56589;51.992;5.924;2022-07-29T07:48:04;101152.00;;;17.42;62.45
69402;BME280;56589;51.992;5.924;2022-07-29T07:50:30;101146.69;;;17.42;62.14
69402;BME280;56589;51.992;5.924;2022-07-29T07:52:56;101154.66;;;17.42;62.23
69402;BME280;56589;51.992;5.924;2022-07-29T07:55:22;101163.47;;;17.42;62.04
69402;BME280;56589;51.992;5.924;2022-07-29T07:57:51;101165.84;;;17.45;62.20
69402;BME280;56589;51.992;5.924;2022-07-29T08:00:17;101161.13;;;17.49;62.38
69402;BME280;56589;51.992;5.924;2022-07-29T08:02:43;101164.47;;;17.51;61.80
69402;BME280;56589;51.992;5.924;2022-07-29T08:05:10;101166.88;;;17.54;61.79
69402;BME280;56589;51.992;5.924;2022-07-29T08:07:38;101171.91;;;17.57;61.82
69402;BME280;56589;51.992;5.924;2022-07-29T08:10:04;101167.03;;;17.62;61.93
69402;BME280;56589;51.992;5.924;2022-07-29T08:12:31;101167.72;;;17.64;61.72
69402;BME280;56589;51.992;5.924;2022-07-29T08:14:59;101170.00;;;17.69;61.59
69402;BME280;56589;51.992;5.924;2022-07-29T08:17:25;101171.16;;;17.76;61.75
69402;BME280;56589;51.992;5.924;2022-07-29T08:19:51;101160.13;;;17.81;61.45
69402;BME280;56589;51.992;5.924;2022-07-29T08:22:17;101158.59;;;17.88;62.06
69402;BME280;56589;51.992;5.924;2022-07-29T08:24:43;101167.84;;;17.93;61.62
69402;BME280;56589;51.992;5.924;2022-07-29T08:27:09;101170.34;;;17.95;60.85
69402;BME280;56589;51.992;5.924;2022-07-29T08:29:35;101159.47;;;17.98;61.08
69402;BME280;56589;51.992;5.924;2022-07-29T08:32:05;101169.66;;;18.02;60.97
69402;BME280;56589;51.992;5.924;2022-07-29T08:34:32;101164.09;;;18.05;60.57
69402;BME280;56589;51.992;5.924;2022-07-29T08:36:58;101163.81;;;18.09;60.85
69402;BME280;56589;51.992;5.924;2022-07-29T08:39:24;101163.69;;;18.10;61.02
69402;BME280;56589;51.992;5.924;2022-07-29T08:41:50;101163.41;;;18.13;60.92
69402;BME280;56589;51.992;5.924;2022-07-29T08:44:16;101170.97;;;18.18;60.76
69402;BME280;56589;51.992;5.924;2022-07-29T08:46:43;101172.50;;;18.20;61.24
69402;BME280;56589;51.992;5.924;2022-07-29T08:49:11;101179.66;;;18.29;61.51
69402;BME280;56589;51.992;5.924;2022-07-29T08:51:39;101183.44;;;18.37;60.82
69402;BME280;56589;51.992;5.924;2022-07-29T08:54:05;101181.34;;;18.40;60.17
69402;BME280;56589;51.992;5.924;2022-07-29T08:56:33;101182.19;;;18.41;60.43
69402;BME280;56589;51.992;5.924;2022-07-29T08:59:03;101182.88;;;18.43;60.69
69402;BME280;56589;51.992;5.924;2022-07-29T09:01:32;101192.13;;;18.48;60.15
69402;BME280;56589;51.992;5.924;2022-07-29T09:03:59;101192.69;;;18.52;60.44
69402;BME280;56589;51.992;5.924;2022-07-29T09:06:32;101191.56;;;18.54;60.34
69402;BME280;56589;51.992;5.924;2022-07-29T09:09:02;101193.91;;;18.57;60.45
69402;BME280;56589;51.992;5.924;2022-07-29T09:11:28;101190.19;;;18.60;60.00
69402;BME280;56589;51.992;5.924;2022-07-29T09:13:54;101206.16;;;18.60;59.87
69402;BME280;56589;51.992;5.924;2022-07-29T09:16:20;101201.50;;;18.62;60.17
69402;BME280;56589;51.992;5.924;2022-07-29T09:18:46;101208.25;;;18.66;60.08
69402;BME280;56589;51.992;5.924;2022-07-29T09:21:13;101212.28;;;18.70;60.10
69402;BME280;56589;51.992;5.924;2022-07-29T09:24:02;101204.88;;;18.74;60.78
69402;BME280;56589;51.992;5.924;2022-07-29T09:26:31;101203.06;;;18.74;60.10
69402;BME280;56589;51.992;5.924;2022-07-29T09:28:58;101198.72;;;18.73;60.06
69402;BME280;56589;51.992;5.924;2022-07-29T09:31:33;101200.69;;;18.71;59.54
69402;BME280;56589;51.992;5.924;2022-07-29T09:34:00;101194.22;;;18.64;59.16
69402;BME280;56589;51.992;5.924;2022-07-29T09:36:26;101194.38;;;18.63;59.86
69402;BME280;56589;51.992;5.924;2022-07-29T09:39:00;101193.38;;;18.64;59.86
69402;BME280;56589;51.992;5.924;2022-07-29T09:41:27;101191.88;;;18.61;59.52
69402;BME280;56589;51.992;5.924;2022-07-29T09:43:54;101192.69;;;18.62;59.55
69402;BME280;56589;51.992;5.924;2022-07-29T09:46:20;101186.41;;;18.63;59.48
69402;BME280;56589;51.992;5.924;2022-07-29T09:49:06;101197.88;;;18.63;60.66
69402;BME280;56589;51.992;5.924;2022-07-29T09:51:32;101207.66;;;18.63;59.72
69402;BME280;56589;51.992;5.924;2022-07-29T09:54:00;101215.50;;;18.64;59.52
69402;BME280;56589;51.992;5.924;2022-07-29T09:56:38;101210.63;;;18.69;60.61
69402;BME280;56589;51.992;5.924;2022-07-29T09:59:05;101191.56;;;18.74;60.25
69402;BME280;56589;51.992;5.924;2022-07-29T10:01:32;101196.34;;;18.80;60.09
69402;BME280;56589;51.992;5.924;2022-07-29T10:03:58;101201.78;;;18.88;59.96
69402;BME280;56589;51.992;5.924;2022-07-29T10:06:24;101201.78;;;18.98;59.40
69402;BME280;56589;51.992;5.924;2022-07-29T10:08:49;101201.75;;;19.07;59.57
69402;BME280;56589;51.992;5.924;2022-07-29T10:11:19;101195.28;;;19.20;59.48
69402;BME280;56589;51.992;5.924;2022-07-29T10:13:46;101189.50;;;19.34;59.58
69402;BME280;56589;51.992;5.924;2022-07-29T10:16:14;101188.88;;;19.50;59.15
69402;BME280;56589;51.992;5.924;2022-07-29T10:18:42;101194.28;;;19.67;58.48
69402;BME280;56589;51.992;5.924;2022-07-29T10:21:09;101199.38;;;19.88;58.24
69402;BME280;56589;51.992;5.924;2022-07-29T10:23:36;101196.59;;;20.08;57.78
69402;BME280;56589;51.992;5.924;2022-07-29T10:26:04;101204.63;;;20.26;56.68
69402;BME280;56589;51.992;5.924;2022-07-29T10:28:32;101200.78;;;20.38;56.44
69402;BME280;56589;51.992;5.924;2022-07-29T10:31:01;101193.53;;;20.48;55.75
69402;BME280;56589;51.992;5.924;2022-07-29T10:33:44;101198.03;;;20.65;57.28
69402;BME280;56589;51.992;5.924;2022-07-29T10:36:32;101198.38;;;20.88;56.59
69402;BME280;56589;51.992;5.924;2022-07-29T10:39:17;101196.44;;;21.16;56.10
69402;BME280;56589;51.992;5.924;2022-07-29T10:42:15;101194.13;;;21.47;55.65
69402;BME280;56589;51.992;5.924;2022-07-29T10:44:46;101199.88;;;21.69;54.34
69402;BME280;56589;51.992;5.924;2022-07-29T10:47:23;101204.34;;;21.94;54.91
69402;BME280;56589;51.992;5.924;2022-07-29T10:49:57;101194.91;;;22.16;54.57
69402;BME280;56589;51.992;5.924;2022-07-29T10:52:24;101198.28;;;22.43;53.36
69402;BME280;56589;51.992;5.924;2022-07-29T10:54:50;101194.47;;;22.62;52.39
69402;BME280;56589;51.992;5.924;2022-07-29T10:57:24;101196.50;;;22.76;52.52
69402;BME280;56589;51.992;5.924;2022-07-29T11:00:26;101191.81;;;22.94;52.83
69402;BME280;56589;51.992;5.924;2022-07-29T11:02:57;101195.47;;;23.01;51.26
69402;BME280;56589;51.992;5.924;2022-07-29T11:05:25;101194.63;;;23.09;50.90
69402;BME280;56589;51.992;5.924;2022-07-29T11:14:01;101191.19;;;23.48;50.85
69402;BME280;56589;51.992;5.924;2022-07-29T11:16:59;101198.63;;;23.77;50.57
69402;BME280;56589;51.992;5.924;2022-07-29T11:19:29;101200.34;;;24.01;49.52
69402;BME280;56589;51.992;5.924;2022-07-29T11:21:55;101194.06;;;24.16;49.18
69402;BME280;56589;51.992;5.924;2022-07-29T11:24:22;101200.00;;;24.35;48.99
69402;BME280;56589;51.992;5.924;2022-07-29T11:27:09;101197.91;;;24.45;47.61
69402;BME280;56589;51.992;5.924;2022-07-29T11:29:40;101202.34;;;24.38;47.20
69402;BME280;56589;51.992;5.924;2022-07-29T11:32:17;101199.34;;;24.33;47.04
69402;BME280;56589;51.992;5.924;2022-07-29T11:34:43;101192.13;;;24.33;47.17
69402;BME280;56589;51.992;5.924;2022-07-29T11:37:30;101181.88;;;24.37;46.75
69402;BME280;56589;51.992;5.924;2022-07-29T11:40:20;101192.91;;;24.42;46.84
69402;BME280;56589;51.992;5.924;2022-07-29T11:42:47;101187.56;;;24.42;46.53
69402;BME280;56589;51.992;5.924;2022-07-29T11:45:20;101190.25;;;24.42;45.96
69402;BME280;56589;51.992;5.924;2022-07-29T11:48:15;101177.53;;;24.36;46.44
69402;BME280;56589;51.992;5.924;2022-07-29T11:50:42;101186.88;;;24.40;46.42
69402;BME280;56589;51.992;5.924;2022-07-29T11:53:11;101186.28;;;24.53;45.80
69402;BME280;56589;51.992;5.924;2022-07-29T11:55:39;101180.97;;;24.67;45.47
69402;BME280;56589;51.992;5.924;2022-07-29T11:58:06;101181.03;;;24.82;44.93
69402;BME280;56589;51.992;5.924;2022-07-29T12:00:34;101183.38;;;25.00;44.81
69402;BME280;56589;51.992;5.924;2022-07-29T12:03:02;101184.25;;;25.15;44.62
69402;BME280;56589;51.992;5.924;2022-07-29T12:05:34;101179.88;;;25.29;44.28
69402;BME280;56589;51.992;5.924;2022-07-29T12:08:06;101185.66;;;25.41;43.75
69402;BME280;56589;51.992;5.924;2022-07-29T12:10:34;101183.50;;;25.51;44.15
69402;BME280;56589;51.992;5.924;2022-07-29T12:13:00;101182.47;;;25.67;43.82
69402;BME280;56589;51.992;5.924;2022-07-29T12:15:27;101184.50;;;25.79;43.24
69402;BME280;56589;51.992;5.924;2022-07-29T12:17:54;101184.38;;;25.88;43.00
69402;BME280;56589;51.992;5.924;2022-07-29T12:20:24;101185.13;;;25.96;42.96
69402;BME280;56589;51.992;5.924;2022-07-29T12:22:54;101177.31;;;26.01;42.16
69402;BME280;56589;51.992;5.924;2022-07-29T12:25:22;101182.88;;;26.00;42.27
69402;BME280;56589;51.992;5.924;2022-07-29T12:27:57;101178.16;;;26.02;42.61
69402;BME280;56589;51.992;5.924;2022-07-29T12:30:34;101176.47;;;26.16;43.24
69402;BME280;56589;51.992;5.924;2022-07-29T12:33:20;101171.59;;;26.26;41.64
69402;BME280;56589;51.992;5.924;2022-07-29T12:35:50;101171.16;;;26.22;41.62
69402;BME280;56589;51.992;5.924;2022-07-29T12:38:20;101169.84;;;26.18;41.28
69402;BME280;56589;51.992;5.924;2022-07-29T12:40:47;101175.63;;;26.15;40.93
69402;BME280;56589;51.992;5.924;2022-07-29T12:43:15;101172.31;;;26.13;41.26
69402;BME280;56589;51.992;5.924;2022-07-29T12:45:46;101175.44;;;26.17;41.08
69402;BME280;56589;51.992;5.924;2022-07-29T12:48:17;101177.50;;;26.15;40.55
69402;BME280;56589;51.992;5.924;2022-07-29T12:50:58;101177.59;;;26.07;40.68
69402;BME280;56589;51.992;5.924;2022-07-29T12:53:29;101169.34;;;26.08;40.46
69402;BME280;56589;51.992;5.924;2022-07-29T12:55:57;101168.94;;;26.11;40.11
69402;BME280;56589;51.992;5.924;2022-07-29T12:58:31;101171.53;;;26.19;40.74
69402;BME280;56589;51.992;5.924;2022-07-29T13:01:04;101161.28;;;26.29;40.54
69402;BME280;56589;51.992;5.924;2022-07-29T13:03:48;101165.31;;;26.40;40.69
69402;BME280;56589;51.992;5.924;2022-07-29T13:06:33;101162.47;;;26.48;40.71
69402;BME280;56589;51.992;5.924;2022-07-29T13:09:09;101166.66;;;26.51;39.76